sensor_id;sensor_type;location;lat;lon;timestamp;pressure;altitude;pressure_sealevel;temperature;humidity
52719;BME280;38616;42.140;24.760;2022-07-23T00:01:28;99626.22;;;26.61;37.46
52719;BME280;38616;42.140;24.760;2022-07-23T00:03:55;99642.22;;;26.71;37.37
52719;BME280;38616;42.140;24.760;2022-07-23T00:06:21;99639.53;;;26.30;37.74
52719;BME280;38616;42.140;24.760;2022-07-23T00:08:47;99636.16;;;26.06;38.49
52719;BME280;38616;42.140;24.760;2022-07-23T00:11:12;99643.59;;;25.91;38.76
52719;BME280;38616;42.140;24.760;2022-07-23T00:13:37;99644.78;;;25.90;38.80
52719;BME280;38616;42.140;24.760;2022-07-23T00:16:03;99651.44;;;25.81;38.94
52719;BME280;38616;42.140;24.760;2022-07-23T00:18:29;99643.16;;;25.89;38.26
52719;BME280;38616;42.140;24.760;2022-07-23T00:20:54;99639.34;;;25.63;39.21
52719;BME280;38616;42.140;24.760;2022-07-23T00:23:20;99639.91;;;25.79;38.42
52719;BME280;38616;42.140;24.760;2022-07-23T00:25:45;99640.81;;;25.49;39.24
52719;BME280;38616;42.140;24.760;2022-07-23T00:28:11;99646.16;;;25.69;38.87
52719;BME280;38616;42.140;24.760;2022-07-23T00:30:37;99644.50;;;25.61;38.42
52719;BME280;38616;42.140;24.760;2022-07-23T00:33:05;99641.09;;;25.78;38.57
52719;BME280;38616;42.140;24.760;2022-07-23T00:35:34;99645.50;;;25.83;38.80
52719;BME280;38616;42.140;24.760;2022-07-23T00:38:00;99634.53;;;26.01;39.36
52719;BME280;38616;42.140;24.760;2022-07-23T00:40:27;99647.13;;;25.88;40.54
52719;BME280;38616;42.140;24.760;2022-07-23T00:42:53;99646.88;;;25.59;41.17
52719;BME280;38616;42.140;24.760;2022-07-23T00:45:19;99651.41;;;25.40;42.04
52719;BME280;38616;42.140;24.760;2022-07-23T00:47:45;99651.91;;;25.15;42.99
52719;BME280;38616;42.140;24.760;2022-07-23T00:50:11;99644.50;;;25.27;43.00
52719;BME280;38616;42.140;24.760;2022-07-23T00:52:37;99655.44;;;25.12;43.31
52719;BME280;38616;42.140;24.760;2022-07-23T00:55:08;99655.31;;;25.01;43.58
52719;BME280;38616;42.140;24.760;2022-07-23T00:57:37;99649.47;;;24.79;44.31
52719;BME280;38616;42.140;24.760;2022-07-23T01:00:05;99657.59;;;24.92;44.27
52719;BME280;38616;42.140;24.760;2022-07-23T01:02:32;99665.41;;;24.83;44.23
52719;BME280;38616;42.140;24.760;2022-07-23T01:04:57;99647.44;;;24.49;44.84
52719;BME280;38616;42.140;24.760;2022-07-23T01:07:23;99657.09;;;24.86;44.37
52719;BME280;38616;42.140;24.760;2022-07-23T01:09:49;99657.22;;;24.67;44.79
52719;BME280;38616;42.140;24.760;2022-07-23T01:12:16;99655.16;;;24.90;44.12
52719;BME280;38616;42.140;24.760;2022-07-23T01:14:41;99655.22;;;24.94;44.06
52719;BME280;38616;42.140;24.760;2022-07-23T01:17:06;99656.22;;;24.78;44.28
52719;BME280;38616;42.140;24.760;2022-07-23T01:19:32;99653.38;;;24.48;44.91
52719;BME280;38616;42.140;24.760;2022-07-23T01:21:58;99656.06;;;24.71;44.82
52719;BME280;38616;42.140;24.760;2022-07-23T01:24:25;99640.50;;;24.90;44.37
52719;BME280;38616;42.140;24.760;2022-07-23T01:26:51;99652.56;;;25.05;43.64
52719;BME280;38616;42.140;24.760;2022-07-23T01:29:17;99641.22;;;25.17;43.49
52719;BME280;38616;42.140;24.760;2022-07-23T01:31:43;99642.41;;;24.86;44.08
52719;BME280;38616;42.140;24.760;2022-07-23T01:34:09;99646.22;;;24.74;44.04
52719;BME280;38616;42.140;24.760;2022-07-23T01:36:35;99654.38;;;24.63;44.71
52719;BME280;38616;42.140;24.760;2022-07-23T01:39:03;99661.88;;;24.86;43.99
52719;BME280;38616;42.140;24.760;2022-07-23T01:41:28;99649.13;;;25.15;43.23
52719;BME280;38616;42.140;24.760;2022-07-23T01:43:54;99648.72;;;25.13;43.39
52719;BME280;38616;42.140;24.760;2022-07-23T01:46:19;99647.72;;;25.32;43.26
52719;BME280;38616;42.140;24.760;2022-07-23T01:48:45;99657.44;;;25.12;42.93
52719;BME280;38616;42.140;24.760;2022-07-23T01:51:10;99644.88;;;24.91;42.91
52719;BME280;38616;42.140;24.760;2022-07-23T01:53:36;99653.84;;;24.54;43.97
52719;BME280;38616;42.140;24.760;2022-07-23T01:56:01;99647.22;;;24.35;44.36
52719;BME280;38616;42.140;24.760;2022-07-23T01:58:27;99646.69;;;24.53;44.04
52719;BME280;38616;42.140;24.760;2022-07-23T02:00:53;99646.75;;;24.83;43.38
52719;BME280;38616;42.140;24.760;2022-07-23T02:03:19;99646.25;;;25.04;42.78
52719;BME280;38616;42.140;24.760;2022-07-23T02:05:45;99645.09;;;25.09;42.51
52719;BME280;38616;42.140;24.760;2022-07-23T02:08:10;99656.94;;;25.02;42.65
52719;BME280;38616;42.140;24.760;2022-07-23T02:10:36;99657.81;;;25.10;42.33
52719;BME280;38616;42.140;24.760;2022-07-23T02:13:02;99650.75;;;25.16;42.15
52719;BME280;38616;42.140;24.760;2022-07-23T02:15:27;99649.63;;;24.90;42.55
52719;BME280;38616;42.140;24.760;2022-07-23T02:17:54;99647.25;;;24.92;42.54
52719;BME280;38616;42.140;24.760;2022-07-23T02:20:19;99645.06;;;25.05;42.47
52719;BME280;38616;42.140;24.760;2022-07-23T02:22:44;99652.78;;;25.23;42.12
52719;BME280;38616;42.140;24.760;2022-07-23T02:25:10;99645.63;;;25.22;41.94
52719;BME280;38616;42.140;24.760;2022-07-23T02:27:36;99653.13;;;25.18;41.90
52719;BME280;38616;42.140;24.760;2022-07-23T02:30:03;99655.66;;;24.42;43.68
52719;BME280;38616;42.140;24.760;2022-07-23T02:32:28;99660.00;;;24.67;43.10
52719;BME280;38616;42.140;24.760;2022-07-23T02:34:54;99650.81;;;24.62;43.29
52719;BME280;38616;42.140;24.760;2022-07-23T02:37:19;99657.75;;;24.76;43.33
52719;BME280;38616;42.140;24.760;2022-07-23T02:39:45;99646.75;;;24.83;43.06
52719;BME280;38616;42.140;24.760;2022-07-23T02:42:10;99653.34;;;25.02;43.03
52719;BME280;38616;42.140;24.760;2022-07-23T02:44:36;99653.75;;;25.04;43.23
52719;BME280;38616;42.140;24.760;2022-07-23T02:47:02;99651.91;;;25.15;42.89
52719;BME280;38616;42.140;24.760;2022-07-23T02:49:27;99661.09;;;25.19;42.67
52719;BME280;38616;42.140;24.760;2022-07-23T02:51:52;99659.41;;;24.81;43.22
52719;BME280;38616;42.140;24.760;2022-07-23T02:54:18;99650.09;;;24.96;42.80
52719;BME280;38616;42.140;24.760;2022-07-23T02:56:44;99659.31;;;25.04;42.96
52719;BME280;38616;42.140;24.760;2022-07-23T02:59:10;99657.28;;;25.01;43.02
52719;BME280;38616;42.140;24.760;2022-07-23T03:01:36;99667.72;;;25.07;42.76
52719;BME280;38616;42.140;24.760;2022-07-23T03:04:01;99652.72;;;25.16;42.70
52719;BME280;38616;42.140;24.760;2022-07-23T03:06:26;99652.69;;;24.82;43.04
52719;BME280;38616;42.140;24.760;2022-07-23T03:08:52;99658.56;;;25.07;42.82
52719;BME280;38616;42.140;24.760;2022-07-23T03:11:17;99660.91;;;25.05;42.83
52719;BME280;38616;42.140;24.760;2022-07-23T03:13:43;99658.41;;;25.27;42.33
52719;BME280;38616;42.140;24.760;2022-07-23T03:16:08;99667.84;;;25.18;42.72
52719;BME280;38616;42.140;24.760;2022-07-23T03:18:34;99667.81;;;25.15;42.80
52719;BME280;38616;42.140;24.760;2022-07-23T03:21:00;99667.31;;;25.09;42.55
52719;BME280;38616;42.140;24.760;2022-07-23T03:23:25;99673.72;;;25.13;42.36
52719;BME280;38616;42.140;24.760;2022-07-23T03:25:51;99675.03;;;24.92;42.96
52719;BME280;38616;42.140;24.760;2022-07-23T03:28:17;99673.88;;;24.93;42.81
52719;BME280;38616;42.140;24.760;2022-07-23T03:30:43;99669.06;;;24.90;42.99
52719;BME280;38616;42.140;24.760;2022-07-23T03:33:15;99670.00;;;25.02;42.49
52719;BME280;38616;42.140;24.760;2022-07-23T03:35:42;99665.88;;;24.61;43.22
52719;BME280;38616;42.140;24.760;2022-07-23T03:38:07;99682.44;;;24.31;43.97
52719;BME280;38616;42.140;24.760;2022-07-23T03:40:32;99687.69;;;24.36;44.11
52719;BME280;38616;42.140;24.760;2022-07-23T03:42:58;99679.31;;;24.32;44.20
52719;BME280;38616;42.140;24.760;2022-07-23T03:45:23;99684.19;;;24.16;44.63
52719;BME280;38616;42.140;24.760;2022-07-23T03:47:49;99677.81;;;24.39;44.14
52719;BME280;38616;42.140;24.760;2022-07-23T03:50:14;99679.53;;;24.74;43.72
52719;BME280;38616;42.140;24.760;2022-07-23T03:52:40;99685.94;;;24.78;43.47
52719;BME280;38616;42.140;24.760;2022-07-23T03:55:06;99685.19;;;24.54;43.31
52719;BME280;38616;42.140;24.760;2022-07-23T03:57:31;99676.25;;;24.14;43.86
52719;BME280;38616;42.140;24.760;2022-07-23T03:59:57;99683.66;;;23.87;44.31
52719;BME280;38616;42.140;24.760;2022-07-23T04:02:22;99683.78;;;23.94;44.25
52719;BME280;38616;42.140;24.760;2022-07-23T04:04:47;99679.53;;;23.77;44.29
52719;BME280;38616;42.140;24.760;2022-07-23T04:07:13;99690.13;;;23.71;44.38
52719;BME280;38616;42.140;24.760;2022-07-23T04:09:39;99683.41;;;23.72;44.65
52719;BME280;38616;42.140;24.760;2022-07-23T04:12:06;99689.19;;;23.64;44.61
52719;BME280;38616;42.140;24.760;2022-07-23T04:14:35;99686.69;;;23.58;45.15
52719;BME280;38616;42.140;24.760;2022-07-23T04:17:00;99688.34;;;23.40;45.16
52719;BME280;38616;42.140;24.760;2022-07-23T04:19:26;99697.34;;;23.56;44.94
52719;BME280;38616;42.140;24.760;2022-07-23T04:21:52;99694.53;;;23.53;44.93
52719;BME280;38616;42.140;24.760;2022-07-23T04:24:17;99693.63;;;23.68;44.54
52719;BME280;38616;42.140;24.760;2022-07-23T04:26:43;99694.25;;;23.81;44.50
52719;BME280;38616;42.140;24.760;2022-07-23T04:29:09;99699.44;;;23.83;44.50
52719;BME280;38616;42.140;24.760;2022-07-23T04:31:35;99693.97;;;23.86;44.11
52719;BME280;38616;42.140;24.760;2022-07-23T04:34:00;99701.47;;;23.86;44.35
52719;BME280;38616;42.140;24.760;2022-07-23T04:36:25;99702.25;;;23.63;44.48
52719;BME280;38616;42.140;24.760;2022-07-23T04:38:51;99693.84;;;23.59;44.65
52719;BME280;38616;42.140;24.760;2022-07-23T04:41:16;99692.84;;;23.91;44.33
52719;BME280;38616;42.140;24.760;2022-07-23T04:43:42;99691.22;;;23.90;44.28
52719;BME280;38616;42.140;24.760;2022-07-23T04:46:07;99686.91;;;23.69;45.01
52719;BME280;38616;42.140;24.760;2022-07-23T04:48:33;99697.91;;;23.85;44.17
52719;BME280;38616;42.140;24.760;2022-07-23T04:50:58;99696.53;;;23.75;44.44
52719;BME280;38616;42.140;24.760;2022-07-23T04:53:23;99695.75;;;23.98;44.03
52719;BME280;38616;42.140;24.760;2022-07-23T04:55:49;99702.81;;;24.15;43.84
52719;BME280;38616;42.140;24.760;2022-07-23T04:58:15;99699.31;;;24.45;43.68
52719;BME280;38616;42.140;24.760;2022-07-23T05:00:40;99694.25;;;24.74;42.82
52719;BME280;38616;42.140;24.760;2022-07-23T05:03:06;99691.38;;;24.98;42.45
52719;BME280;38616;42.140;24.760;2022-07-23T05:05:31;99694.19;;;24.71;42.73
52719;BME280;38616;42.140;24.760;2022-07-23T05:07:57;99693.44;;;24.74;42.98
52719;BME280;38616;42.140;24.760;2022-07-23T05:10:22;99696.97;;;24.47;42.79
52719;BME280;38616;42.140;24.760;2022-07-23T05:12:47;99694.16;;;24.44;43.27
52719;BME280;38616;42.140;24.760;2022-07-23T05:15:13;99698.59;;;24.48;43.42
52719;BME280;38616;42.140;24.760;2022-07-23T05:17:38;99693.91;;;24.79;42.85
52719;BME280;38616;42.140;24.760;2022-07-23T05:20:04;99682.50;;;24.85;42.42
52719;BME280;38616;42.140;24.760;2022-07-23T05:22:30;99685.06;;;25.01;42.42
52719;BME280;38616;42.140;24.760;2022-07-23T05:24:55;99689.22;;;25.14;42.72
52719;BME280;38616;42.140;24.760;2022-07-23T05:27:20;99682.91;;;25.48;42.02
52719;BME280;38616;42.140;24.760;2022-07-23T05:29:46;99686.31;;;25.37;42.16
52719;BME280;38616;42.140;24.760;2022-07-23T05:32:11;99683.91;;;25.70;41.86
52719;BME280;38616;42.140;24.760;2022-07-23T05:34:37;99691.78;;;26.02;41.12
52719;BME280;38616;42.140;24.760;2022-07-23T05:37:02;99683.19;;;26.15;40.72
52719;BME280;38616;42.140;24.760;2022-07-23T05:39:27;99681.59;;;25.76;40.65
52719;BME280;38616;42.140;24.760;2022-07-23T05:41:53;99680.66;;;25.61;41.26
52719;BME280;38616;42.140;24.760;2022-07-23T05:44:18;99671.59;;;25.67;41.17
52719;BME280;38616;42.140;24.760;2022-07-23T05:46:45;99688.50;;;25.89;41.28
52719;BME280;38616;42.140;24.760;2022-07-23T05:49:11;99683.16;;;25.73;41.29
52719;BME280;38616;42.140;24.760;2022-07-23T05:51:36;99681.00;;;25.97;41.17
52719;BME280;38616;42.140;24.760;2022-07-23T05:54:02;99682.47;;;26.25;40.50
52719;BME280;38616;42.140;24.760;2022-07-23T05:56:27;99690.13;;;26.35;40.40
52719;BME280;38616;42.140;24.760;2022-07-23T05:58:53;99686.91;;;26.33;40.52
52719;BME280;38616;42.140;24.760;2022-07-23T06:01:18;99687.09;;;26.59;40.25
52719;BME280;38616;42.140;24.760;2022-07-23T06:03:43;99690.47;;;26.30;40.70
52719;BME280;38616;42.140;24.760;2022-07-23T06:06:09;99690.00;;;26.21;40.61
52719;BME280;38616;42.140;24.760;2022-07-23T06:08:35;99682.31;;;26.10;41.32
52719;BME280;38616;42.140;24.760;2022-07-23T06:11:00;99683.84;;;26.46;40.89
52719;BME280;38616;42.140;24.760;2022-07-23T06:13:26;99683.09;;;26.56;41.03
52719;BME280;38616;42.140;24.760;2022-07-23T06:15:51;99680.56;;;26.89;40.51
52719;BME280;38616;42.140;24.760;2022-07-23T06:18:17;99680.28;;;27.23;40.09
52719;BME280;38616;42.140;24.760;2022-07-23T06:20:42;99681.41;;;27.04;39.36
52719;BME280;38616;42.140;24.760;2022-07-23T06:23:08;99677.50;;;27.19;39.44
52719;BME280;38616;42.140;24.760;2022-07-23T06:25:33;99676.47;;;27.64;39.00
52719;BME280;38616;42.140;24.760;2022-07-23T06:27:59;99685.66;;;27.82;39.14
52719;BME280;38616;42.140;24.760;2022-07-23T06:30:25;99686.06;;;27.88;38.89
52719;BME280;38616;42.140;24.760;2022-07-23T06:32:50;99692.03;;;27.72;38.62
52719;BME280;38616;42.140;24.760;2022-07-23T06:35:16;99684.06;;;27.92;38.36
52719;BME280;38616;42.140;24.760;2022-07-23T06:37:42;99682.91;;;28.04;38.31
52719;BME280;38616;42.140;24.760;2022-07-23T06:40:08;99674.53;;;28.11;38.16
52719;BME280;38616;42.140;24.760;2022-07-23T06:42:33;99670.53;;;27.98;38.19
52719;BME280;38616;42.140;24.760;2022-07-23T06:45:02;99680.50;;;28.02;37.98
52719;BME280;38616;42.140;24.760;2022-07-23T06:47:31;99678.53;;;28.32;37.98
52719;BME280;38616;42.140;24.760;2022-07-23T06:49:57;99673.72;;;28.07;38.15
52719;BME280;38616;42.140;24.760;2022-07-23T06:52:22;99674.13;;;28.02;37.85
52719;BME280;38616;42.140;24.760;2022-07-23T06:54:48;99674.88;;;27.77;37.85
52719;BME280;38616;42.140;24.760;2022-07-23T06:57:14;99665.75;;;27.95;37.54
52719;BME280;38616;42.140;24.760;2022-07-23T06:59:39;99655.78;;;28.44;37.26
52719;BME280;38616;42.140;24.760;2022-07-23T07:02:06;99646.94;;;28.86;36.99
52719;BME280;38616;42.140;24.760;2022-07-23T07:04:32;99646.13;;;28.89;36.03
52719;BME280;38616;42.140;24.760;2022-07-23T07:06:57;99655.31;;;28.86;36.09
52719;BME280;38616;42.140;24.760;2022-07-23T07:09:23;99653.69;;;28.74;35.71
52719;BME280;38616;42.140;24.760;2022-07-23T07:11:49;99653.75;;;28.67;35.50
52719;BME280;38616;42.140;24.760;2022-07-23T07:14:14;99648.19;;;28.52;35.82
52719;BME280;38616;42.140;24.760;2022-07-23T07:16:39;99649.72;;;28.71;35.06
52719;BME280;38616;42.140;24.760;2022-07-23T07:19:05;99646.16;;;28.82;35.09
52719;BME280;38616;42.140;24.760;2022-07-23T07:21:30;99648.84;;;29.11;34.84
52719;BME280;38616;42.140;24.760;2022-07-23T07:23:56;99639.66;;;29.07;34.16
52719;BME280;38616;42.140;24.760;2022-07-23T07:26:21;99634.97;;;28.82;34.54
52719;BME280;38616;42.140;24.760;2022-07-23T07:28:46;99643.66;;;29.05;34.22
52719;BME280;38616;42.140;24.760;2022-07-23T07:31:12;99638.44;;;29.15;33.74
52719;BME280;38616;42.140;24.760;2022-07-23T07:33:37;99637.59;;;29.22;33.59
52719;BME280;38616;42.140;24.760;2022-07-23T07:36:03;99635.91;;;29.42;33.27
52719;BME280;38616;42.140;24.760;2022-07-23T07:38:29;99630.28;;;29.46;33.83
52719;BME280;38616;42.140;24.760;2022-07-23T07:40:54;99626.88;;;29.76;32.84
52719;BME280;38616;42.140;24.760;2022-07-23T07:43:20;99626.72;;;30.02;32.73
52719;BME280;38616;42.140;24.760;2022-07-23T07:45:45;99625.94;;;29.98;31.89
52719;BME280;38616;42.140;24.760;2022-07-23T07:48:10;99626.00;;;29.90;32.43
52719;BME280;38616;42.140;24.760;2022-07-23T07:50:36;99618.03;;;29.85;32.56
52719;BME280;38616;42.140;24.760;2022-07-23T07:53:01;99613.00;;;30.11;32.77
52719;BME280;38616;42.140;24.760;2022-07-23T07:55:27;99612.66;;;30.47;31.43
52719;BME280;38616;42.140;24.760;2022-07-23T07:57:53;99618.41;;;30.33;31.77
52719;BME280;38616;42.140;24.760;2022-07-23T08:00:19;99616.44;;;30.33;31.94
52719;BME280;38616;42.140;24.760;2022-07-23T08:02:48;99614.50;;;30.65;31.92
52719;BME280;38616;42.140;24.760;2022-07-23T08:05:14;99610.78;;;30.75;31.20
52719;BME280;38616;42.140;24.760;2022-07-23T08:07:40;99614.91;;;30.63;31.10
52719;BME280;38616;42.140;24.760;2022-07-23T08:10:07;99604.38;;;30.75;31.44
52719;BME280;38616;42.140;24.760;2022-07-23T08:12:41;99609.06;;;30.85;30.21
52719;BME280;38616;42.140;24.760;2022-07-23T08:15:07;99603.31;;;30.96;30.57
52719;BME280;38616;42.140;24.760;2022-07-23T08:17:33;99598.94;;;31.26;29.94
52719;BME280;38616;42.140;24.760;2022-07-23T08:19:59;99603.50;;;31.44;29.80
52719;BME280;38616;42.140;24.760;2022-07-23T08:22:24;99594.22;;;31.47;29.42
52719;BME280;38616;42.140;24.760;2022-07-23T08:24:49;99594.44;;;31.32;28.92
52719;BME280;38616;42.140;24.760;2022-07-23T08:27:15;99587.88;;;31.43;29.23
52719;BME280;38616;42.140;24.760;2022-07-23T08:29:40;99578.03;;;31.82;29.37
52719;BME280;38616;42.140;24.760;2022-07-23T08:32:05;99587.78;;;32.01;29.48
52719;BME280;38616;42.140;24.760;2022-07-23T08:34:31;99585.47;;;32.16;29.04
52719;BME280;38616;42.140;24.760;2022-07-23T08:36:56;99577.78;;;32.20;28.96
52719;BME280;38616;42.140;24.760;2022-07-23T08:39:22;99577.91;;;32.37;28.10
52719;BME280;38616;42.140;24.760;2022-07-23T08:41:47;99566.16;;;32.42;28.68
52719;BME280;38616;42.140;24.760;2022-07-23T08:44:16;99576.78;;;32.54;28.21
52719;BME280;38616;42.140;24.760;2022-07-23T08:46:41;99564.16;;;32.63;28.40
52719;BME280;38616;42.140;24.760;2022-07-23T08:49:08;99557.84;;;32.75;27.92
52719;BME280;38616;42.140;24.760;2022-07-23T08:51:34;99555.63;;;32.66;27.95
52719;BME280;38616;42.140;24.760;2022-07-23T08:54:00;99560.03;;;32.67;27.59
52719;BME280;38616;42.140;24.760;2022-07-23T08:56:25;99558.34;;;32.70;27.44
52719;BME280;38616;42.140;24.760;2022-07-23T08:58:53;99554.41;;;32.67;27.29
52719;BME280;38616;42.140;24.760;2022-07-23T09:01:19;99550.94;;;32.80;27.38
52719;BME280;38616;42.140;24.760;2022-07-23T09:03:44;99548.47;;;32.82;27.54
52719;BME280;38616;42.140;24.760;2022-07-23T09:06:10;99556.66;;;32.96;27.62
52719;BME280;38616;42.140;24.760;2022-07-23T09:08:37;99547.53;;;33.09;27.93
52719;BME280;38616;42.140;24.760;2022-07-23T09:11:11;99547.28;;;33.20;27.94
52719;BME280;38616;42.140;24.760;2022-07-23T09:13:50;99547.72;;;33.35;27.37
52719;BME280;38616;42.140;24.760;2022-07-23T09:16:28;99541.72;;;33.33;27.05
52719;BME280;38616;42.140;24.760;2022-07-23T09:19:00;99547.16;;;33.43;26.55
52719;BME280;38616;42.140;24.760;2022-07-23T09:21:28;99546.34;;;33.43;26.24
52719;BME280;38616;42.140;24.760;2022-07-23T09:28:50;99543.19;;;33.57;25.47
52719;BME280;38616;42.140;24.760;2022-07-23T09:31:16;99541.41;;;33.47;25.06
52719;BME280;38616;42.140;24.760;2022-07-23T09:33:41;99539.56;;;33.57;24.63
52719;BME280;38616;42.140;24.760;2022-07-23T09:36:07;99525.56;;;33.70;24.30
52719;BME280;38616;42.140;24.760;2022-07-23T09:38:34;99529.97;;;33.71;25.21
52719;BME280;38616;42.140;24.760;2022-07-23T09:41:07;99528.66;;;33.92;25.94
52719;BME280;38616;42.140;24.760;2022-07-23T09:43:33;99526.69;;;33.89;24.76
52719;BME280;38616;42.140;24.760;2022-07-23T09:46:24;99524.22;;;34.08;25.09
52719;BME280;38616;42.140;24.760;2022-07-23T09:48:54;99518.22;;;34.06;24.36
52719;BME280;38616;42.140;24.760;2022-07-23T09:51:21;99506.63;;;33.87;22.53
52719;BME280;38616;42.140;24.760;2022-07-23T09:54:02;99508.38;;;33.97;22.26
52719;BME280;38616;42.140;24.760;2022-07-23T09:56:28;99518.91;;;34.10;21.64
52719;BME280;38616;42.140;24.760;2022-07-23T09:58:54;99507.47;;;34.17;22.22
52719;BME280;38616;42.140;24.760;2022-07-23T10:01:34;99515.06;;;34.03;22.32
52719;BME280;38616;42.140;24.760;2022-07-23T10:04:00;99506.50;;;34.07;22.21
52719;BME280;38616;42.140;24.760;2022-07-23T10:06:27;99508.56;;;34.19;21.99
52719;BME280;38616;42.140;24.760;2022-07-23T10:08:56;99500.66;;;34.44;20.86
52719;BME280;38616;42.140;24.760;2022-07-23T10:11:23;99500.03;;;34.23;21.45
52719;BME280;38616;42.140;24.760;2022-07-23T10:13:49;99496.47;;;34.36;21.54
52719;BME280;38616;42.140;24.760;2022-07-23T10:16:15;99497.63;;;34.51;21.81
52719;BME280;38616;42.140;24.760;2022-07-23T10:18:41;99494.47;;;34.49;21.07
52719;BME280;38616;42.140;24.760;2022-07-23T10:21:08;99481.63;;;34.48;21.46
52719;BME280;38616;42.140;24.760;2022-07-23T10:23:40;99491.34;;;34.60;21.38
52719;BME280;38616;42.140;24.760;2022-07-23T10:26:23;99488.31;;;34.67;20.92
52719;BME280;38616;42.140;24.760;2022-07-23T10:28:55;99481.91;;;34.80;20.69
52719;BME280;38616;42.140;24.760;2022-07-23T10:31:47;99485.03;;;34.69;20.65
52719;BME280;38616;42.140;24.760;2022-07-23T10:34:24;99484.59;;;34.70;20.80
52719;BME280;38616;42.140;24.760;2022-07-23T10:36:55;99473.16;;;34.48;20.59
52719;BME280;38616;42.140;24.760;2022-07-23T10:41:51;99470.94;;;34.82;20.48
52719;BME280;38616;42.140;24.760;2022-07-23T10:44:18;99463.50;;;34.75;20.38
52719;BME280;38616;42.140;24.760;2022-07-23T10:47:02;99466.78;;;34.99;19.89
52719;BME280;38616;42.140;24.760;2022-07-23T10:49:43;99457.41;;;35.15;20.07
52719;BME280;38616;42.140;24.760;2022-07-23T10:52:25;99458.09;;;34.81;19.75
52719;BME280;38616;42.140;24.760;2022-07-23T10:57:48;99448.69;;;34.71;20.65
52719;BME280;38616;42.140;24.760;2022-07-23T11:00:24;99449.50;;;34.84;20.24
52719;BME280;38616;42.140;24.760;2022-07-23T11:02:58;99443.19;;;35.06;19.56
52719;BME280;38616;42.140;24.760;2022-07-23T11:05:42;99438.16;;;35.36;19.47
52719;BME280;38616;42.140;24.760;2022-07-23T11:10:41;99432.25;;;35.43;20.38
52719;BME280;38616;42.140;24.760;2022-07-23T11:16:13;99427.66;;;35.49;18.98
52719;BME280;38616;42.140;24.760;2022-07-23T11:24:14;99419.81;;;35.67;17.79
52719;BME280;38616;42.140;24.760;2022-07-23T11:34:41;99414.34;;;35.72;17.07
52719;BME280;38616;42.140;24.760;2022-07-23T11:37:09;99414.41;;;35.59;17.53
52719;BME280;38616;42.140;24.760;2022-07-23T11:39:35;99416.91;;;35.79;17.61
52719;BME280;38616;42.140;24.760;2022-07-23T11:42:03;99396.53;;;35.85;17.59
52719;BME280;38616;42.140;24.760;2022-07-23T11:44:39;99405.38;;;35.52;18.30
52719;BME280;38616;42.140;24.760;2022-07-23T11:49:30;99400.28;;;35.82;17.65
52719;BME280;38616;42.140;24.760;2022-07-23T11:52:03;99403.22;;;35.78;17.95
52719;BME280;38616;42.140;24.760;2022-07-23T11:54:33;99396.13;;;35.95;18.22
52719;BME280;38616;42.140;24.760;2022-07-23T11:57:00;99400.78;;;36.02;18.20
52719;BME280;38616;42.140;24.760;2022-07-23T11:59:26;99402.81;;;36.02;18.22
52719;BME280;38616;42.140;24.760;2022-07-23T12:01:56;99388.94;;;36.17;18.34
52719;BME280;38616;42.140;24.760;2022-07-23T12:04:23;99384.75;;;36.31;16.99
52719;BME280;38616;42.140;24.760;2022-07-23T12:06:48;99390.16;;;35.93;17.36
52719;BME280;38616;42.140;24.760;2022-07-23T12:09:14;99388.50;;;35.83;17.91
52719;BME280;38616;42.140;24.760;2022-07-23T12:11:39;99385.91;;;36.11;17.82
52719;BME280;38616;42.140;24.760;2022-07-23T12:14:21;99395.63;;;36.10;17.29
52719;BME280;38616;42.140;24.760;2022-07-23T12:16:46;99385.91;;;35.89;17.42
52719;BME280;38616;42.140;24.760;2022-07-23T12:19:11;99382.41;;;36.07;17.35
52719;BME280;38616;42.140;24.760;2022-07-23T12:21:38;99367.91;;;36.18;17.70
52719;BME280;38616;42.140;24.760;2022-07-23T12:24:07;99371.91;;;36.39;17.60
52719;BME280;38616;42.140;24.760;2022-07-23T12:26:32;99361.97;;;36.34;17.06
52719;BME280;38616;42.140;24.760;2022-07-23T12:28:58;99363.72;;;36.00;17.22
52719;BME280;38616;42.140;24.760;2022-07-23T12:31:27;99355.22;;;36.00;17.19
52719;BME280;38616;42.140;24.760;2022-07-23T12:33:55;99351.94;;;35.79;17.29
52719;BME280;38616;42.140;24.760;2022-07-23T12:36:36;99353.66;;;35.99;16.99
52719;BME280;38616;42.140;24.760;2022-07-23T12:39:02;99345.28;;;36.18;17.01
52719;BME280;38616;42.140;24.760;2022-07-23T12:41:27;99342.47;;;36.18;17.24
52719;BME280;38616;42.140;24.760;2022-07-23T12:44:16;99340.78;;;35.98;17.11
52719;BME280;38616;42.140;24.760;2022-07-23T12:46:41;99337.59;;;35.96;17.06
52719;BME280;38616;42.140;24.760;2022-07-23T12:49:07;99338.44;;;36.06;17.03
52719;BME280;38616;42.140;24.760;2022-07-23T12:51:39;99338.94;;;36.04;17.45
52719;BME280;38616;42.140;24.760;2022-07-23T12:54:06;99328.00;;;36.25;17.04
52719;BME280;38616;42.140;24.760;2022-07-23T12:56:38;99328.34;;;36.27;16.89
52719;BME280;38616;42.140;24.760;2022-07-23T13:01:33;99324.88;;;36.23;17.00
52719;BME280;38616;42.140;24.760;2022-07-23T13:04:11;99311.72;;;36.38;17.40
52719;BME280;38616;42.140;24.760;2022-07-23T13:09:07;99310.44;;;36.21;16.90
52719;BME280;38616;42.140;24.760;2022-07-23T13:11:33;99313.16;;;36.02;16.99
52719;BME280;38616;42.140;24.760;2022-07-23T13:13:59;99304.47;;;36.19;16.97
52719;BME280;38616;42.140;24.760;2022-07-23T13:16:27;99301.31;;;36.26;17.00
52719;BME280;38616;42.140;24.760;2022-07-23T13:18:52;99300.25;;;36.33;17.41
52719;BME280;38616;42.140;24.760;2022-07-23T13:21:17;99304.00;;;36.71;17.79
52719;BME280;38616;42.140;24.760;2022-07-23T13:23:43;99305.88;;;36.74;17.04
52719;BME280;38616;42.140;24.760;2022-07-23T13:26:09;99295.66;;;36.76;17.50